createdAt,value
2022-11-20T00:00:02.625Z,74.00
2022-11-20T00:01:02.112Z,74.00
2022-11-20T00:02:03.104Z,74.00
2022-11-20T00:03:02.784Z,73.00
2022-11-20T00:04:02.713Z,73.00
2022-11-20T00:05:03.163Z,73.00
2022-11-20T00:06:02.905Z,73.00
2022-11-20T00:07:02.861Z,73.00
2022-11-20T00:08:02.931Z,73.00
2022-11-20T00:09:02.874Z,73.00
2022-11-20T00:10:03.255Z,73.00
2022-11-20T00:11:03.140Z,72.00
2022-11-20T00:12:03.281Z,72.00
2022-11-20T00:13:02.967Z,72.00
2022-11-20T00:14:03.373Z,73.00
2022-11-20T00:15:02.999Z,72.00
2022-11-20T00:16:03.330Z,72.00
2022-11-20T00:17:03.751Z,72.00
2022-11-20T00:18:03.771Z,72.00
2022-11-20T00:19:03.261Z,72.00
2022-11-20T00:20:03.619Z,72.00
2022-11-20T00:21:03.220Z,72.00
2022-11-20T00:22:03.318Z,72.00
2022-11-20T00:23:03.092Z,71.00
2022-11-20T00:24:02.812Z,72.00
2022-11-20T00:25:02.726Z,72.00
2022-11-20T00:26:03.074Z,72.00
2022-11-20T00:27:03.446Z,72.00
2022-11-20T00:28:03.004Z,72.00
2022-11-20T00:29:02.925Z,72.00
2022-11-20T00:30:03.173Z,71.00
2022-11-20T00:31:03.455Z,71.00
2022-11-20T00:32:03.539Z,72.00
2022-11-20T00:33:03.201Z,72.00
2022-11-20T00:34:03.024Z,71.00
2022-11-20T00:35:03.400Z,71.00
2022-11-20T00:36:03.136Z,70.00
2022-11-20T00:37:02.690Z,70.00
2022-11-20T00:38:03.045Z,70.00
2022-11-20T00:39:03.123Z,70.00
2022-11-20T00:40:02.911Z,71.00
2022-11-20T00:41:02.671Z,71.00
2022-11-20T00:42:03.647Z,71.00
2022-11-20T00:43:03.450Z,71.00
2022-11-20T00:44:03.157Z,71.00
2022-11-20T00:45:03.569Z,72.00
2022-11-20T00:46:03.206Z,72.00
2022-11-20T00:47:02.851Z,72.00
2022-11-20T00:48:03.236Z,72.00
2022-11-20T00:49:03.113Z,72.00
2022-11-20T00:50:02.754Z,73.00
2022-11-20T00:51:03.090Z,72.00
2022-11-20T00:52:03.403Z,72.00
2022-11-20T00:53:02.881Z,72.00
2022-11-20T00:54:03.266Z,71.00
2022-11-20T00:55:03.000Z,71.00
2022-11-20T00:56:03.386Z,72.00
2022-11-20T00:57:03.111Z,72.00
2022-11-20T00:58:04.658Z,72.00
2022-11-20T00:59:03.054Z,72.00
2022-11-20T01:00:03.617Z,73.00
2022-11-20T01:01:03.265Z,72.00
2022-11-20T01:02:03.181Z,72.00
2022-11-20T01:03:03.496Z,72.00
2022-11-20T01:04:03.284Z,72.00
2022-11-20T01:05:03.397Z,72.00
2022-11-20T01:06:03.440Z,72.00
2022-11-20T01:07:03.225Z,72.00
2022-11-20T01:08:03.115Z,72.00
2022-11-20T01:09:02.888Z,73.00
2022-11-20T01:10:03.461Z,73.00
2022-11-20T01:11:02.991Z,73.00
2022-11-20T01:12:03.403Z,73.00
2022-11-20T01:13:03.759Z,73.00
2022-11-20T01:14:03.763Z,73.00
2022-11-20T01:15:03.811Z,73.00
2022-11-20T01:16:03.529Z,73.00
2022-11-20T01:17:02.979Z,73.00
2022-11-20T01:18:03.408Z,73.00
2022-11-20T01:19:02.911Z,73.00
2022-11-20T01:20:02.893Z,73.00
2022-11-20T01:21:03.188Z,73.00
2022-11-20T01:22:02.564Z,74.00
2022-11-20T01:23:02.919Z,74.00
2022-11-20T01:24:02.728Z,74.00
2022-11-20T01:25:03.065Z,74.00
2022-11-20T01:26:02.751Z,74.00
2022-11-20T01:27:03.014Z,74.00
2022-11-20T01:28:02.703Z,74.00
2022-11-20T01:29:02.766Z,73.00
2022-11-20T01:30:02.886Z,74.00
2022-11-20T01:31:03.223Z,74.00
2022-11-20T01:32:03.510Z,74.00
2022-11-20T01:33:03.425Z,74.00
2022-11-20T01:34:03.243Z,74.00
2022-11-20T01:35:02.994Z,75.00
2022-11-20T01:36:03.403Z,75.00
2022-11-20T01:37:02.618Z,75.00
2022-11-20T01:38:02.868Z,75.00
2022-11-20T01:39:02.426Z,75.00
2022-11-20T01:40:02.731Z,75.00
2022-11-20T01:41:02.461Z,75.00
2022-11-20T01:42:08.358Z,75.00
2022-11-20T01:43:02.841Z,75.00
2022-11-20T01:44:02.818Z,75.00
2022-11-20T01:45:03.127Z,76.00
2022-11-20T01:46:03.227Z,75.00
2022-11-20T01:47:02.762Z,75.00
2022-11-20T01:48:02.526Z,75.00
2022-11-20T01:49:02.449Z,75.00
2022-11-20T01:50:02.933Z,75.00
2022-11-20T01:51:02.493Z,75.00
2022-11-20T01:52:03.122Z,75.00
2022-11-20T01:53:02.866Z,74.00
2022-11-20T01:54:02.923Z,74.00
2022-11-20T01:55:02.874Z,74.00
2022-11-20T01:56:02.599Z,73.00
2022-11-20T01:57:03.408Z,73.00
2022-11-20T01:58:03.625Z,73.00
2022-11-20T01:59:03.108Z,73.00
2022-11-20T02:00:03.547Z,73.00
2022-11-20T02:01:03.009Z,73.00
2022-11-20T02:02:03.354Z,72.00
2022-11-20T02:03:03.678Z,73.00
2022-11-20T02:04:03.474Z,73.00
2022-11-20T02:05:03.201Z,73.00
2022-11-20T02:06:03.572Z,72.00
2022-11-20T02:07:03.178Z,72.00
2022-11-20T02:08:02.953Z,72.00
2022-11-20T02:09:02.711Z,72.00
2022-11-20T02:10:03.090Z,71.00
2022-11-20T02:11:02.981Z,72.00
2022-11-20T02:12:02.713Z,71.00
2022-11-20T02:13:02.328Z,71.00
2022-11-20T02:14:02.709Z,71.00
2022-11-20T02:15:02.699Z,71.00
2022-11-20T02:16:02.473Z,71.00
2022-11-20T02:17:02.886Z,71.00
2022-11-20T02:18:02.998Z,71.00
2022-11-20T02:19:02.625Z,71.00
2022-11-20T02:20:02.923Z,71.00
2022-11-20T02:21:02.699Z,71.00
2022-11-20T02:22:03.405Z,71.00
2022-11-20T02:23:02.958Z,71.00
2022-11-20T02:24:03.408Z,71.00
2022-11-20T02:25:02.968Z,71.00
2022-11-20T02:26:03.442Z,71.00
2022-11-20T02:27:03.673Z,71.00
2022-11-20T02:28:03.477Z,71.00
2022-11-20T02:29:03.601Z,71.00
2022-11-20T02:30:03.411Z,71.00
2022-11-20T02:31:03.802Z,71.00
2022-11-20T02:32:03.191Z,71.00
2022-11-20T02:33:02.927Z,71.00
2022-11-20T02:34:02.737Z,71.00
2022-11-20T02:35:02.707Z,71.00
2022-11-20T02:36:03.158Z,71.00
2022-11-20T02:37:03.648Z,72.00
2022-11-20T02:38:03.139Z,72.00
2022-11-20T02:39:03.617Z,72.00
2022-11-20T02:40:03.183Z,72.00
2022-11-20T02:41:03.534Z,73.00
2022-11-20T02:42:02.552Z,73.00
2022-11-20T02:43:02.877Z,73.00
2022-11-20T02:44:02.637Z,73.00
2022-11-20T02:45:02.489Z,73.00
2022-11-20T02:46:03.248Z,73.00
2022-11-20T02:47:03.675Z,73.00
2022-11-20T02:48:03.166Z,73.00
2022-11-20T02:49:03.176Z,73.00
2022-11-20T02:50:03.616Z,73.00
2022-11-20T02:51:03.665Z,73.00
2022-11-20T02:52:02.303Z,73.00
2022-11-20T02:53:02.938Z,73.00
2022-11-20T02:54:02.414Z,73.00
2022-11-20T02:55:02.865Z,74.00
2022-11-20T02:56:02.784Z,74.00
2022-11-20T02:57:02.658Z,74.00
2022-11-20T02:58:03.275Z,74.00
2022-11-20T02:59:03.212Z,74.00
2022-11-20T03:00:02.729Z,73.00
2022-11-20T03:01:03.084Z,73.00
2022-11-20T03:02:02.048Z,74.00
2022-11-20T03:03:01.838Z,74.00
2022-11-20T03:04:02.333Z,74.00
2022-11-20T03:05:02.361Z,74.00
2022-11-20T03:06:02.301Z,74.00
2022-11-20T03:07:02.137Z,74.00
2022-11-20T03:08:02.607Z,73.00
2022-11-20T03:09:02.282Z,73.00
2022-11-20T03:10:02.096Z,73.00
2022-11-20T03:11:02.545Z,73.00
2022-11-20T03:12:02.731Z,73.00
2022-11-20T03:13:02.945Z,73.00
2022-11-20T03:14:02.739Z,73.00
2022-11-20T03:15:02.877Z,73.00
2022-11-20T03:16:02.366Z,73.00
2022-11-20T03:17:01.815Z,73.00
2022-11-20T03:18:01.884Z,73.00
2022-11-20T03:19:01.980Z,73.00
2022-11-20T03:20:02.296Z,73.00
2022-11-20T03:21:01.889Z,73.00
2022-11-20T03:22:02.542Z,73.00
2022-11-20T03:23:02.298Z,73.00
2022-11-20T03:24:02.804Z,73.00
2022-11-20T03:25:02.904Z,74.00
2022-11-20T03:26:02.458Z,73.00
2022-11-20T03:27:02.174Z,74.00
2022-11-20T03:28:02.051Z,73.00
2022-11-20T03:29:02.364Z,74.00
2022-11-20T03:30:02.188Z,74.00
2022-11-20T03:31:01.984Z,74.00
2022-11-20T03:32:02.613Z,75.00
2022-11-20T03:33:02.403Z,74.00
2022-11-20T03:34:02.727Z,74.00
2022-11-20T03:35:02.493Z,75.00
2022-11-20T03:36:02.700Z,74.00
2022-11-20T03:37:02.404Z,74.00
2022-11-20T03:38:02.899Z,74.00
2022-11-20T03:39:02.434Z,75.00
2022-11-20T03:40:02.528Z,75.00
2022-11-20T03:41:02.870Z,75.00
2022-11-20T03:42:02.085Z,75.00
2022-11-20T03:43:02.677Z,75.00
2022-11-20T03:44:02.230Z,75.00
2022-11-20T03:45:02.288Z,75.00
2022-11-20T03:46:02.365Z,74.00
2022-11-20T03:47:02.519Z,74.00
2022-11-20T03:48:02.311Z,74.00
2022-11-20T03:49:02.644Z,74.00
2022-11-20T03:50:02.324Z,74.00
2022-11-20T03:51:02.795Z,74.00
2022-11-20T03:52:01.539Z,74.00
2022-11-20T03:53:01.740Z,73.00
2022-11-20T03:54:01.561Z,73.00
2022-11-20T03:55:01.303Z,74.00
2022-11-20T03:56:01.941Z,74.00
2022-11-20T03:57:02.125Z,73.00
2022-11-20T03:58:02.025Z,74.00
2022-11-20T03:59:01.865Z,73.00
2022-11-20T04:00:02.270Z,73.00
2022-11-20T04:01:02.530Z,73.00
2022-11-20T04:02:02.746Z,73.00
2022-11-20T04:03:02.615Z,73.00
2022-11-20T04:04:03.094Z,73.00
2022-11-20T04:05:02.470Z,73.00
2022-11-20T04:06:02.673Z,73.00
2022-11-20T04:07:03.133Z,73.00
2022-11-20T04:08:03.315Z,73.00
2022-11-20T04:09:03.531Z,73.00
2022-11-20T04:10:03.084Z,73.00
2022-11-20T04:11:03.250Z,72.00
2022-11-20T04:12:03.531Z,73.00
2022-11-20T04:13:02.863Z,72.00
2022-11-20T04:14:03.205Z,72.00
2022-11-20T04:15:02.879Z,73.00
2022-11-20T04:16:03.341Z,73.00
2022-11-20T04:17:02.866Z,73.00
2022-11-20T04:18:02.658Z,73.00
2022-11-20T04:19:02.975Z,73.00
2022-11-20T04:20:02.918Z,73.00
2022-11-20T04:21:02.535Z,74.00
2022-11-20T04:22:02.920Z,74.00
2022-11-20T04:23:02.726Z,74.00
2022-11-20T04:24:03.145Z,73.00
2022-11-20T04:25:02.749Z,73.00
2022-11-20T04:26:02.740Z,73.00
2022-11-20T04:27:03.315Z,74.00
2022-11-20T04:28:03.235Z,74.00
2022-11-20T04:29:02.856Z,74.00
2022-11-20T04:30:03.178Z,74.00
2022-11-20T04:31:03.069Z,74.00
2022-11-20T04:32:02.580Z,74.00
2022-11-20T04:33:02.855Z,74.00
2022-11-20T04:34:02.340Z,74.00
2022-11-20T04:35:02.951Z,74.00
2022-11-20T04:36:02.230Z,75.00
2022-11-20T04:37:02.700Z,75.00
2022-11-20T04:38:03.006Z,75.00
2022-11-20T04:39:02.698Z,75.00
2022-11-20T04:40:02.377Z,75.00
2022-11-20T04:41:02.393Z,75.00
2022-11-20T04:42:03.010Z,75.00
2022-11-20T04:43:03.116Z,75.00
2022-11-20T04:44:02.813Z,76.00
2022-11-20T04:45:03.111Z,76.00
2022-11-20T04:46:02.739Z,75.00
2022-11-20T04:47:02.704Z,76.00
2022-11-20T04:48:03.048Z,76.00
2022-11-20T04:49:02.834Z,76.00
2022-11-20T04:50:03.220Z,76.00
2022-11-20T04:51:02.729Z,77.00
2022-11-20T04:52:03.174Z,77.00
2022-11-20T04:53:02.938Z,77.00
2022-11-20T04:54:03.325Z,77.00
2022-11-20T04:55:02.951Z,77.00
2022-11-20T04:56:03.337Z,77.00
2022-11-20T04:57:02.227Z,77.00
2022-11-20T04:58:02.413Z,77.00
2022-11-20T04:59:02.168Z,77.00
2022-11-20T05:00:01.909Z,77.00
2022-11-20T05:01:02.174Z,77.00
2022-11-20T05:02:02.458Z,77.00
2022-11-20T05:03:02.233Z,77.00
2022-11-20T05:04:02.048Z,77.00
2022-11-20T05:05:02.468Z,77.00
2022-11-20T05:06:01.949Z,77.00
2022-11-20T05:07:02.429Z,77.00
2022-11-20T05:08:02.131Z,77.00
2022-11-20T05:09:02.196Z,77.00
2022-11-20T05:10:02.333Z,77.00
2022-11-20T05:11:01.945Z,77.00
2022-11-20T05:12:02.405Z,77.00
2022-11-20T05:13:02.330Z,77.00
2022-11-20T05:14:02.118Z,77.00
2022-11-20T05:15:02.487Z,77.00
2022-11-20T05:16:02.521Z,77.00
2022-11-20T05:17:02.833Z,76.00
2022-11-20T05:18:02.429Z,77.00
2022-11-20T05:19:02.456Z,76.00
2022-11-20T05:20:02.880Z,76.00
2022-11-20T05:21:02.596Z,76.00
2022-11-20T05:22:02.912Z,76.00
2022-11-20T05:23:02.615Z,76.00
2022-11-20T05:24:03.006Z,76.00
2022-11-20T05:25:02.884Z,76.00
2022-11-20T05:26:02.571Z,75.00
2022-11-20T05:27:02.362Z,75.00
2022-11-20T05:28:01.928Z,75.00
2022-11-20T05:29:02.396Z,75.00
2022-11-20T05:30:01.846Z,75.00
2022-11-20T05:31:02.216Z,75.00
2022-11-20T05:32:02.453Z,75.00
2022-11-20T05:33:02.439Z,75.00
2022-11-20T05:34:02.197Z,75.00
2022-11-20T05:35:02.733Z,75.00
2022-11-20T05:36:02.253Z,75.00
2022-11-20T05:37:02.309Z,75.00
2022-11-20T05:38:02.023Z,75.00
2022-11-20T05:39:02.369Z,75.00
2022-11-20T05:40:01.761Z,75.00
2022-11-20T05:41:02.017Z,75.00
2022-11-20T05:42:02.131Z,75.00
2022-11-20T05:43:01.938Z,75.00
2022-11-20T05:44:02.397Z,75.00
2022-11-20T05:45:02.106Z,75.00
2022-11-20T05:46:02.500Z,75.00
2022-11-20T05:47:02.730Z,75.00
2022-11-20T05:48:02.553Z,75.00
2022-11-20T05:49:02.688Z,74.00
2022-11-20T05:50:02.478Z,74.00
2022-11-20T05:51:02.398Z,74.00
2022-11-20T05:52:02.955Z,74.00
2022-11-20T05:53:02.447Z,74.00
2022-11-20T05:54:02.962Z,74.00
2022-11-20T05:55:02.374Z,74.00
2022-11-20T05:56:02.783Z,74.00
2022-11-20T05:57:02.413Z,74.00
2022-11-20T05:58:01.955Z,74.00
2022-11-20T05:59:01.773Z,74.00
2022-11-20T06:00:02.099Z,74.00
2022-11-20T06:01:02.081Z,74.00
2022-11-20T06:02:03.261Z,74.00
2022-11-20T06:03:03.039Z,74.00
2022-11-20T06:04:03.351Z,74.00
2022-11-20T06:05:03.076Z,74.00
2022-11-20T06:06:03.215Z,74.00
2022-11-20T06:07:03.683Z,74.00
2022-11-20T06:08:03.090Z,74.00
2022-11-20T06:09:03.430Z,74.00
2022-11-20T06:10:03.479Z,74.00
2022-11-20T06:11:03.076Z,74.00
2022-11-20T06:12:02.667Z,74.00
2022-11-20T06:13:02.922Z,74.00
2022-11-20T06:14:03.299Z,74.00
2022-11-20T06:15:02.709Z,75.00
2022-11-20T06:16:02.970Z,75.00
2022-11-20T06:17:03.703Z,75.00
2022-11-20T06:18:03.169Z,75.00
2022-11-20T06:19:03.570Z,75.00
2022-11-20T06:20:03.405Z,75.00
2022-11-20T06:21:03.224Z,75.00
2022-11-20T06:22:03.410Z,75.00
2022-11-20T06:23:02.970Z,75.00
2022-11-20T06:24:03.335Z,75.00
2022-11-20T06:25:03.031Z,75.00
2022-11-20T06:26:03.227Z,75.00
2022-11-20T06:27:03.319Z,75.00
2022-11-20T06:28:03.121Z,75.00
2022-11-20T06:29:03.628Z,75.00
2022-11-20T06:30:03.204Z,75.00
2022-11-20T06:31:03.507Z,75.00
2022-11-20T06:32:02.316Z,74.00
2022-11-20T06:33:02.879Z,74.00
2022-11-20T06:34:02.690Z,74.00
2022-11-20T06:35:02.446Z,74.00
2022-11-20T06:36:07.472Z,75.00
2022-11-20T06:37:03.053Z,74.00
2022-11-20T06:38:02.889Z,74.00
2022-11-20T06:39:02.903Z,74.00
2022-11-20T06:40:03.279Z,74.00
2022-11-20T06:41:03.290Z,74.00
2022-11-20T06:42:03.335Z,74.00
2022-11-20T06:43:03.268Z,75.00
2022-11-20T06:44:03.219Z,75.00
2022-11-20T06:45:03.019Z,75.00
2022-11-20T06:46:02.792Z,75.00
2022-11-20T06:47:02.342Z,76.00
2022-11-20T06:48:02.460Z,76.00
2022-11-20T06:49:02.390Z,76.00
2022-11-20T06:50:02.851Z,76.00
2022-11-20T06:51:02.689Z,76.00
2022-11-20T06:52:03.098Z,76.00
2022-11-20T06:53:03.423Z,76.00
2022-11-20T06:54:03.320Z,76.00
2022-11-20T06:55:03.124Z,76.00
2022-11-20T06:56:03.111Z,76.00
2022-11-20T06:57:02.665Z,77.00
2022-11-20T06:58:03.326Z,77.00
2022-11-20T06:59:02.470Z,77.00
2022-11-20T07:00:02.920Z,77.00
2022-11-20T07:01:03.058Z,76.00
2022-11-20T07:02:02.408Z,76.00
2022-11-20T07:03:02.293Z,76.00
2022-11-20T07:04:02.156Z,76.00
2022-11-20T07:05:02.647Z,76.00
2022-11-20T07:06:02.303Z,75.00
2022-11-20T07:07:02.984Z,75.00
2022-11-20T07:08:02.807Z,75.00
2022-11-20T07:09:02.667Z,75.00
2022-11-20T07:10:02.808Z,75.00
2022-11-20T07:11:02.710Z,75.00
2022-11-20T07:12:02.190Z,75.00
2022-11-20T07:13:02.034Z,75.00
2022-11-20T07:14:02.538Z,74.00
2022-11-20T07:15:02.350Z,74.00
2022-11-20T07:16:02.134Z,74.00
2022-11-20T07:17:02.861Z,74.00
2022-11-20T07:18:03.041Z,74.00
2022-11-20T07:19:02.811Z,74.00
2022-11-20T07:20:02.586Z,74.00
2022-11-20T07:21:03.083Z,73.00
2022-11-20T07:22:02.977Z,73.00
2022-11-20T07:23:03.090Z,74.00
2022-11-20T07:24:02.916Z,74.00
2022-11-20T07:25:02.749Z,74.00
2022-11-20T07:26:02.922Z,74.00
2022-11-20T07:27:02.500Z,74.00
2022-11-20T07:28:02.339Z,73.00
2022-11-20T07:29:03.075Z,74.00
2022-11-20T07:30:02.661Z,74.00
2022-11-20T07:31:02.468Z,73.00
2022-11-20T07:32:01.675Z,73.00
2022-11-20T07:33:02.286Z,73.00
2022-11-20T07:34:01.900Z,73.00
2022-11-20T07:35:01.661Z,73.00
2022-11-20T07:36:02.211Z,73.00
2022-11-20T07:37:07.486Z,73.00
2022-11-20T07:38:02.321Z,73.00
2022-11-20T07:39:02.128Z,73.00
2022-11-20T07:40:02.699Z,74.00
2022-11-20T07:41:02.393Z,74.00
2022-11-20T07:42:02.776Z,74.00
2022-11-20T07:43:02.607Z,74.00
2022-11-20T07:44:02.920Z,74.00
2022-11-20T07:45:02.957Z,74.00
2022-11-20T07:46:02.841Z,73.00
2022-11-20T07:47:02.929Z,74.00
2022-11-20T07:48:02.766Z,75.00
2022-11-20T07:49:02.844Z,75.00
2022-11-20T07:50:03.098Z,74.00
2022-11-20T07:51:02.551Z,74.00
2022-11-20T07:52:05.098Z,74.00
2022-11-20T07:53:02.649Z,74.00
2022-11-20T07:54:02.067Z,74.00
2022-11-20T07:55:02.065Z,74.00
2022-11-20T07:56:02.618Z,74.00
2022-11-20T07:57:02.977Z,74.00
2022-11-20T07:58:03.060Z,74.00
2022-11-20T07:59:02.951Z,73.00
2022-11-20T08:00:02.505Z,73.00
2022-11-20T08:01:02.532Z,73.00
2022-11-20T08:02:03.485Z,74.00
2022-11-20T08:03:03.056Z,74.00
2022-11-20T08:04:02.870Z,74.00
2022-11-20T08:05:02.705Z,74.00
2022-11-20T08:06:03.227Z,74.00
2022-11-20T08:07:03.633Z,74.00
2022-11-20T08:08:03.561Z,74.00
2022-11-20T08:09:03.121Z,74.00
2022-11-20T08:10:03.319Z,74.00
2022-11-20T08:11:03.144Z,74.00
2022-11-20T08:12:03.465Z,74.00
2022-11-20T08:13:03.394Z,74.00
2022-11-20T08:14:03.576Z,74.00
2022-11-20T08:15:06.179Z,75.00
2022-11-20T08:16:03.414Z,75.00
2022-11-20T08:17:03.134Z,76.00
2022-11-20T08:18:29.384Z,76.00
2022-11-20T08:19:02.867Z,75.00
2022-11-20T08:20:02.706Z,75.00
2022-11-20T08:21:03.219Z,75.00
2022-11-20T08:22:02.899Z,75.00
2022-11-20T08:23:02.745Z,75.00
2022-11-20T08:24:02.648Z,76.00
2022-11-20T08:25:02.587Z,76.00
2022-11-20T08:26:02.299Z,76.00
2022-11-20T08:27:03.004Z,76.00
2022-11-20T08:28:11.504Z,76.00
2022-11-20T08:29:02.572Z,76.00
2022-11-20T08:30:02.409Z,76.00
2022-11-20T08:31:02.504Z,75.00
2022-11-20T08:32:03.048Z,75.00
2022-11-20T08:33:02.572Z,76.00
2022-11-20T08:34:07.757Z,76.00
2022-11-20T08:35:02.884Z,76.00
2022-11-20T08:36:02.522Z,77.00
2022-11-20T08:37:03.201Z,77.00
2022-11-20T08:38:02.780Z,77.00
2022-11-20T08:39:02.828Z,77.00
2022-11-20T08:40:02.839Z,77.00
2022-11-20T08:41:02.926Z,77.00
2022-11-20T08:42:02.821Z,77.00
2022-11-20T08:43:02.702Z,77.00
2022-11-20T08:44:02.682Z,77.00
2022-11-20T08:45:02.600Z,77.00
2022-11-20T08:46:02.409Z,77.00
2022-11-20T08:47:02.186Z,76.00
2022-11-20T08:48:02.288Z,76.00
2022-11-20T08:49:02.545Z,76.00
2022-11-20T08:50:02.362Z,76.00
2022-11-20T08:51:02.826Z,76.00
2022-11-20T08:52:02.958Z,76.00
2022-11-20T08:53:02.532Z,76.00
2022-11-20T08:54:02.362Z,76.00
2022-11-20T08:55:02.446Z,76.00
2022-11-20T08:56:02.290Z,76.00
2022-11-20T08:57:03.204Z,76.00
2022-11-20T08:58:02.608Z,76.00
2022-11-20T08:59:20.561Z,76.00
2022-11-20T09:00:07.099Z,76.00
2022-11-20T09:01:02.563Z,76.00
2022-11-20T09:02:01.810Z,75.00
2022-11-20T09:03:01.995Z,76.00
2022-11-20T09:04:02.215Z,76.00
2022-11-20T09:05:01.766Z,76.00
2022-11-20T09:06:01.847Z,76.00
2022-11-20T09:07:02.098Z,76.00
2022-11-20T09:08:02.540Z,75.00
2022-11-20T09:09:06.662Z,75.00
2022-11-20T09:10:24.077Z,75.00
2022-11-20T09:11:02.311Z,75.00
2022-11-20T09:12:02.374Z,75.00
2022-11-20T09:13:02.512Z,74.00
2022-11-20T09:14:02.343Z,74.00
2022-11-20T09:15:02.245Z,73.00
2022-11-20T09:16:02.717Z,73.00
2022-11-20T09:17:02.260Z,74.00
2022-11-20T09:18:02.882Z,74.00
2022-11-20T09:19:33.697Z,74.00
2022-11-20T09:20:02.761Z,74.00
2022-11-20T09:21:02.510Z,74.00
2022-11-20T09:22:02.716Z,74.00
2022-11-20T09:23:02.731Z,74.00
2022-11-20T09:24:02.762Z,73.00
2022-11-20T09:25:03.035Z,73.00
2022-11-20T09:26:02.944Z,73.00
2022-11-20T09:27:01.977Z,73.00
2022-11-20T09:28:02.374Z,73.00
2022-11-20T09:29:02.367Z,73.00
2022-11-20T09:30:01.926Z,73.00
2022-11-20T09:31:02.069Z,73.00
2022-11-20T09:32:02.624Z,73.00
2022-11-20T09:33:02.599Z,73.00
2022-11-20T09:34:03.173Z,74.00
2022-11-20T09:35:02.750Z,74.00
2022-11-20T09:36:02.529Z,73.00
2022-11-20T09:37:06.145Z,73.00
2022-11-20T09:38:02.309Z,72.00
2022-11-20T09:39:02.106Z,72.00
2022-11-20T09:40:02.042Z,72.00
2022-11-20T09:41:01.950Z,72.00
2022-11-20T09:42:02.293Z,72.00
2022-11-20T09:43:02.544Z,72.00
2022-11-20T09:44:02.594Z,72.00
2022-11-20T09:45:02.330Z,72.00
2022-11-20T09:46:02.549Z,72.00
2022-11-20T09:47:02.063Z,72.00
2022-11-20T09:48:02.455Z,72.00
2022-11-20T09:49:02.413Z,72.00
2022-11-20T09:50:02.321Z,71.00
2022-11-20T09:51:02.196Z,71.00
2022-11-20T09:52:02.056Z,72.00
2022-11-20T09:53:01.868Z,72.00
2022-11-20T09:54:02.430Z,72.00
2022-11-20T09:55:01.917Z,71.00
2022-11-20T09:56:02.325Z,71.00
2022-11-20T09:57:02.597Z,71.00
2022-11-20T09:58:02.374Z,72.00
2022-11-20T09:59:02.565Z,72.00
2022-11-20T10:00:02.651Z,72.00
2022-11-20T10:01:02.726Z,72.00
2022-11-20T10:02:03.514Z,72.00
2022-11-20T10:03:02.930Z,72.00
2022-11-20T10:04:03.564Z,72.00
2022-11-20T10:05:03.014Z,72.00
2022-11-20T10:06:02.894Z,72.00
2022-11-20T10:07:32.026Z,72.00
2022-11-20T10:08:02.934Z,72.00
2022-11-20T10:09:02.644Z,71.00
2022-11-20T10:10:02.537Z,72.00
2022-11-20T10:11:02.634Z,72.00
2022-11-20T10:12:03.071Z,72.00
2022-11-20T10:13:03.465Z,72.00
2022-11-20T10:14:03.519Z,72.00
2022-11-20T10:15:03.204Z,72.00
2022-11-20T10:16:03.321Z,72.00
2022-11-20T10:17:03.066Z,72.00
2022-11-20T10:18:03.282Z,72.00
2022-11-20T10:19:03.246Z,73.00
2022-11-20T10:20:03.274Z,72.00
2022-11-20T10:21:03.204Z,72.00
2022-11-20T10:22:02.581Z,72.00
2022-11-20T10:23:02.622Z,72.00
2022-11-20T10:24:02.512Z,72.00
2022-11-20T10:25:02.414Z,72.00
2022-11-20T10:26:02.935Z,73.00
2022-11-20T10:27:02.651Z,72.00
2022-11-20T10:28:02.928Z,72.00
2022-11-20T10:29:08.506Z,72.00
2022-11-20T10:30:02.735Z,72.00
2022-11-20T10:31:02.706Z,72.00
2022-11-20T10:32:02.805Z,72.00
2022-11-20T10:33:03.292Z,72.00
2022-11-20T10:34:12.088Z,73.00
2022-11-20T10:35:03.309Z,73.00
2022-11-20T10:36:03.068Z,73.00
2022-11-20T10:37:02.996Z,72.00
2022-11-20T10:38:03.318Z,72.00
2022-11-20T10:39:02.727Z,72.00
2022-11-20T10:40:02.929Z,71.00
2022-11-20T10:41:03.349Z,71.00
2022-11-20T10:42:02.639Z,72.00
2022-11-20T10:43:02.775Z,72.00
2022-11-20T10:44:02.553Z,71.00
2022-11-20T10:45:05.622Z,71.00
2022-11-20T10:46:02.807Z,71.00
2022-11-20T10:47:03.139Z,71.00
2022-11-20T10:48:02.978Z,71.00
2022-11-20T10:49:02.892Z,71.00
2022-11-20T10:50:02.978Z,69.00
2022-11-20T10:51:03.201Z,70.00
2022-11-20T10:52:03.481Z,69.00
2022-11-20T10:53:03.530Z,69.00
2022-11-20T10:54:03.593Z,69.00
2022-11-20T10:55:03.710Z,69.00
2022-11-20T10:56:03.213Z,69.00
2022-11-20T10:57:03.023Z,70.00
2022-11-20T10:58:03.236Z,70.00
2022-11-20T10:59:02.772Z,71.00
2022-11-20T11:00:02.784Z,70.00
2022-11-20T11:01:03.358Z,70.00
2022-11-20T11:02:03.535Z,70.00
2022-11-20T11:03:02.939Z,70.00
2022-11-20T11:04:02.635Z,70.00
2022-11-20T11:05:02.434Z,70.00
2022-11-20T11:06:02.451Z,70.00
2022-11-20T11:07:03.030Z,70.00
2022-11-20T11:08:02.613Z,70.00
2022-11-20T11:09:02.586Z,69.00
2022-11-20T11:10:02.632Z,69.00
2022-11-20T11:11:03.084Z,69.00
2022-11-20T11:12:07.028Z,69.00
2022-11-20T11:13:02.231Z,69.00
2022-11-20T11:14:02.331Z,69.00
2022-11-20T11:15:02.671Z,69.00
2022-11-20T11:16:02.295Z,69.00
2022-11-20T11:17:03.131Z,69.00
2022-11-20T11:18:02.708Z,70.00
2022-11-20T11:19:03.272Z,70.00
2022-11-20T11:20:03.258Z,70.00
2022-11-20T11:21:03.205Z,70.00
2022-11-20T11:22:03.285Z,70.00
2022-11-20T11:23:03.367Z,70.00
2022-11-20T11:24:26.968Z,70.00
2022-11-20T11:25:03.324Z,70.00
2022-11-20T11:26:03.440Z,70.00
2022-11-20T11:27:02.782Z,70.00
2022-11-20T11:28:02.219Z,70.00
2022-11-20T11:29:02.302Z,70.00
2022-11-20T11:30:02.792Z,70.00
2022-11-20T11:31:02.495Z,69.00
2022-11-20T11:32:03.289Z,70.00
2022-11-20T11:33:03.068Z,70.00
2022-11-20T11:34:03.027Z,69.00
2022-11-20T11:35:02.740Z,70.00
2022-11-20T11:36:03.361Z,70.00
2022-11-20T11:37:02.556Z,70.00
2022-11-20T11:38:02.411Z,70.00
2022-11-20T11:39:02.361Z,70.00
2022-11-20T11:40:28.149Z,70.00
2022-11-20T11:41:02.263Z,70.00
2022-11-20T11:42:02.930Z,69.00
2022-11-20T11:43:02.676Z,69.00
2022-11-20T11:44:02.797Z,69.00
2022-11-20T11:45:02.323Z,69.00
2022-11-20T11:46:02.280Z,70.00
2022-11-20T11:47:03.246Z,70.00
2022-11-20T11:48:03.039Z,70.00
2022-11-20T11:49:02.909Z,70.00
2022-11-20T11:50:02.888Z,70.00
2022-11-20T11:51:02.893Z,70.00
2022-11-20T11:52:03.383Z,70.00
2022-11-20T11:53:03.334Z,70.00
2022-11-20T11:54:03.211Z,70.00
2022-11-20T11:55:07.122Z,70.00
2022-11-20T11:56:03.033Z,70.00
2022-11-20T11:57:02.180Z,71.00
2022-11-20T11:58:02.639Z,70.00
2022-11-20T11:59:02.838Z,70.00
2022-11-20T12:00:02.705Z,70.00
2022-11-20T12:01:02.179Z,70.00
2022-11-20T12:02:02.638Z,70.00
2022-11-20T12:03:02.222Z,70.00
2022-11-20T12:04:02.073Z,70.00
2022-11-20T12:05:02.030Z,70.00
2022-11-20T12:06:01.839Z,70.00
2022-11-20T12:07:13.212Z,70.00
2022-11-20T12:08:02.006Z,70.00
2022-11-20T12:09:02.140Z,70.00
2022-11-20T12:10:02.020Z,70.00
2022-11-20T12:11:02.570Z,70.00
2022-11-20T12:12:02.293Z,70.00
2022-11-20T12:13:01.810Z,69.00
2022-11-20T12:14:01.835Z,69.00
2022-11-20T12:15:01.953Z,70.00
2022-11-20T12:16:01.530Z,70.00
2022-11-20T12:17:01.680Z,70.00
2022-11-20T12:18:02.702Z,70.00
2022-11-20T12:19:02.504Z,70.00
2022-11-20T12:20:02.921Z,70.00
2022-11-20T12:21:02.478Z,71.00
2022-11-20T12:22:04.979Z,71.00
2022-11-20T12:23:02.109Z,71.00
2022-11-20T12:24:02.002Z,71.00
2022-11-20T12:25:01.764Z,71.00
2022-11-20T12:26:02.252Z,71.00
2022-11-20T12:27:01.709Z,72.00
2022-11-20T12:28:02.554Z,72.00
2022-11-20T12:29:02.203Z,73.00
2022-11-20T12:30:02.413Z,72.00
2022-11-20T12:31:02.068Z,72.00
2022-11-20T12:32:02.180Z,72.00
2022-11-20T12:33:01.692Z,72.00
2022-11-20T12:34:01.537Z,73.00
2022-11-20T12:35:04.118Z,73.00
2022-11-20T12:36:01.754Z,73.00
2022-11-20T12:37:01.584Z,73.00
2022-11-20T12:38:02.542Z,73.00
2022-11-20T12:39:02.599Z,73.00
2022-11-20T12:40:02.611Z,73.00
2022-11-20T12:41:02.476Z,73.00
2022-11-20T12:42:02.174Z,73.00
2022-11-20T12:43:02.046Z,73.00
2022-11-20T12:44:01.707Z,73.00
2022-11-20T12:45:01.863Z,73.00
2022-11-20T12:46:01.870Z,73.00
2022-11-20T12:47:01.870Z,73.00
2022-11-20T12:48:01.738Z,73.00
2022-11-20T12:49:01.870Z,73.00
2022-11-20T12:50:02.040Z,73.00
2022-11-20T12:51:14.532Z,73.00
2022-11-20T12:52:02.082Z,73.00